M/T Vemaoil Xi — 9HWD7 — position and weather

sailwx.info

Track history (hours):
 
Tides and Currents Weather Stations Pressure Air Temp Water Temp Dewpoint Dewpoint Depression Visibility Wind Speed Wind Dir Waves Ship Positions

M/T Vemaoil Xi

Last reported at 2017-Mar-26 12:31 UTC. Time now 2017-Mar-26 13:01 UTC.
Position N 35°49' E 014°33'.

Length 105 m; draft 6 m.

Type: Tanker. MMSI: 215631000.

Date/timePositionNaut miles runAvg speedWind from/ knotsBaromVisibWave heightAir tempDewpointWater temp
2017-Mar-26 12:31N 35°49' E 014°33'6 5.9
2017-Mar-26 11:32N 35°50' E 014°40'5 2.1
2017-Mar-26 09:17N 35°52' E 014°45'4 5.2
2017-Mar-26 08:33N 35°50' E 014°41'6 5.2
2017-Mar-26 07:23N 35°49' E 014°34'0 0.4
2017-Mar-26 06:27N 35°49' E 014°34'4 4.8
2017-Mar-26 05:34N 35°53' E 014°34'3 0.2
2017-Mar-25 18:12N 35°54' E 014°31'2 2.8
2017-Mar-25 17:33N 35°54' E 014°34'4 3.7
2017-Mar-25 16:32N 35°51' E 014°36'0 0.0
2017-Mar-25 15:29N 35°51' E 014°36'0 0.0
2017-Mar-25 14:32N 35°51' E 014°36'0 0.0
2017-Mar-25 13:26N 35°51' E 014°36'0 0.0
2017-Mar-25 12:23N 35°51' E 014°36'0 0.0
2017-Mar-25 11:29N 35°51' E 014°36'0 0.0
2017-Mar-25 10:32N 35°51' E 014°36'0 0.0
2017-Mar-25 07:20N 35°51' E 014°36'0 0.0
2017-Mar-25 06:29N 35°51' E 014°36'2 2.0
2017-Mar-25 05:33N 35°50' E 014°38'6 5.6
2017-Mar-25 04:30N 35°53' E 014°44'2 0.7
2017-Mar-25 02:07N 35°55' E 014°45'2 0.8
2017-Mar-24 23:20N 35°55' E 014°48'0 0.0
2017-Mar-24 21:23N 35°55' E 014°48'1 0.7
2017-Mar-24 19:33N 35°54' E 014°46'1 0.7
2017-Mar-24 18:33N 35°54' E 014°45'0 0.0
2017-Mar-24 17:33N 35°54' E 014°45'0 0.0
2017-Mar-24 15:15N 35°54' E 014°45'0 0.0
2017-Mar-24 14:33N 35°54' E 014°45'0 0.0
2017-Mar-24 13:33N 35°54' E 014°45'0 0.0
2017-Mar-24 11:18N 35°54' E 014°45'0 0.0
2017-Mar-24 10:34N 35°54' E 014°45'2 1.8
2017-Mar-24 09:33N 35°53' E 014°44'0 0.1
2017-Mar-24 06:19N 35°53' E 014°45'0 0.0
2017-Mar-24 05:31N 35°53' E 014°45'0 0.0
2017-Mar-24 04:25N 35°53' E 014°45'0 0.0
2017-Mar-24 03:19N 35°53' E 014°45'0 0.2
2017-Mar-24 02:32N 35°53' E 014°45'6 5.8
2017-Mar-24 01:33N 35°49' E 014°39'4 0.1
2017-Mar-22 08:17N 35°49' E 014°34'2 3.0
2017-Mar-22 07:32N 35°50' E 014°36'0 0.0
2017-Mar-22 06:26N 35°50' E 014°36'0 0.0
2017-Mar-22 05:32N 35°50' E 014°36'0 0.0
2017-Mar-22 04:32N 35°50' E 014°36'0 0.0
2017-Mar-22 03:32N 35°50' E 014°36'0 0.0
2017-Mar-22 02:17N 35°50' E 014°36'0 0.0
2017-Mar-21 21:17N 35°50' E 014°36'0 0.0
2017-Mar-21 20:11N 35°50' E 014°36'0 0.0
2017-Mar-21 19:11N 35°50' E 014°36'1 0.1
2017-Mar-21 07:33N 35°50' E 014°37'8 6.8
2017-Mar-21 06:25N 35°53' E 014°45'0 0.0
2017-Mar-21 03:25N 35°53' E 014°45'0 0.0
2017-Mar-21 02:31N 35°53' E 014°45'0 0.0
2017-Mar-21 01:31N 35°53' E 014°45'0 0.0
2017-Mar-21 00:19N 35°53' E 014°45'0 0.0
2017-Mar-20 23:31N 35°53' E 014°45'0 0.0
2017-Mar-20 22:31N 35°53' E 014°45'1 1.4
2017-Mar-20 21:31N 35°53' E 014°44'1 1.0
2017-Mar-20 20:27N 35°52' E 014°45'0 0.0
2017-Mar-20 19:33N 35°52' E 014°45'0 0.0
2017-Mar-20 18:33N 35°52' E 014°45'0 0.0
2017-Mar-20 17:24N 35°52' E 014°45'0 0.0
2017-Mar-20 16:33N 35°52' E 014°45'0 0.0
2017-Mar-20 15:30N 35°52' E 014°45'0 0.1
2017-Mar-20 14:30N 35°52' E 014°45'1 1.1
2017-Mar-20 13:31N 35°53' E 014°45'0 0.0
2017-Mar-20 12:31N 35°53' E 014°45'0 0.0
2017-Mar-20 11:31N 35°53' E 014°45'0 0.2
2017-Mar-20 10:33N 35°53' E 014°45'2 2.2
2017-Mar-20 09:32N 35°53' E 014°48'0 0.0
2017-Mar-20 08:32N 35°53' E 014°48'0 0.0
2017-Mar-20 07:29N 35°53' E 014°48'0 0.0
2017-Mar-20 06:32N 35°53' E 014°48'0 0.0
2017-Mar-20 05:32N 35°53' E 014°48'0 0.0
2017-Mar-20 04:32N 35°53' E 014°48'5 4.9
2017-Mar-20 03:33N 35°50' E 014°43'6 6.1
2017-Mar-20 02:33N 35°49' E 014°36'0 0.3
2017-Mar-20 01:33N 35°49' E 014°35'0 0.0
2017-Mar-20 00:27N 35°49' E 014°35'0 0.0
2017-Mar-19 23:33N 35°49' E 014°35'0 0.0
2017-Mar-19 22:33N 35°49' E 014°35'0 0.0
2017-Mar-19 21:30N 35°49' E 014°35'0 0.0
2017-Mar-19 20:30N 35°49' E 014°35'2 0.1
2017-Mar-19 07:30N 35°49' E 014°33'1 0.1
2017-Mar-18 21:28N 35°49' E 014°32'3 0.2
2017-Mar-18 10:16N 35°50' E 014°35'0 0.0
2017-Mar-18 09:31N 35°50' E 014°35'0 0.0
2017-Mar-18 08:31N 35°50' E 014°35'0 0.0
2017-Mar-18 06:04N 35°50' E 014°35'0 0.0
2017-Mar-18 05:13N 35°50' E 014°35'0 0.0
2017-Mar-18 03:19N 35°50' E 014°35'3 3.5
2017-Mar-18 02:32N 35°52' E 014°36'4 0.3
2017-Mar-17 14:17N 35°54' E 014°31'1 1.9
2017-Mar-17 13:33N 35°54' E 014°33'2 1.5
2017-Mar-17 12:33N 35°53' E 014°35'4 0.7
2017-Mar-17 07:33N 35°49' E 014°35'1 0.2
2017-Mar-16 22:10N 35°49' E 014°34'  
Track history (hours):
 
Tides and Currents Weather Stations Pressure Air Temp Water Temp Dewpoint Dewpoint Depression Visibility Wind Speed Wind Dir Waves Ship Positions

M/T Vemaoil Xi

Last reported at 2017-Mar-26 12:31 UTC. Time now 2017-Mar-26 13:01 UTC.
Position N 35°49' E 014°33'.

Length 105 m; draft 6 m.

Type: Tanker. MMSI: 215631000.

Date/timePositionNaut miles runAvg speedWind from/ knotsBaromVisibWave heightAir tempDewpointWater temp
2017-Mar-26 12:31N 35°49' E 014°33'6 5.9
2017-Mar-26 11:32N 35°50' E 014°40'5 2.1
2017-Mar-26 09:17N 35°52' E 014°45'4 5.2
2017-Mar-26 08:33N 35°50' E 014°41'6 5.2
2017-Mar-26 07:23N 35°49' E 014°34'0 0.4
2017-Mar-26 06:27N 35°49' E 014°34'4 4.8
2017-Mar-26 05:34N 35°53' E 014°34'3 0.2
2017-Mar-25 18:12N 35°54' E 014°31'2 2.8
2017-Mar-25 17:33N 35°54' E 014°34'4 3.7
2017-Mar-25 16:32N 35°51' E 014°36'0 0.0
2017-Mar-25 15:29N 35°51' E 014°36'0 0.0
2017-Mar-25 14:32N 35°51' E 014°36'0 0.0
2017-Mar-25 13:26N 35°51' E 014°36'0 0.0
2017-Mar-25 12:23N 35°51' E 014°36'0 0.0
2017-Mar-25 11:29N 35°51' E 014°36'0 0.0
2017-Mar-25 10:32N 35°51' E 014°36'0 0.0
2017-Mar-25 07:20N 35°51' E 014°36'0 0.0
2017-Mar-25 06:29N 35°51' E 014°36'2 2.0
2017-Mar-25 05:33N 35°50' E 014°38'6 5.6
2017-Mar-25 04:30N 35°53' E 014°44'2 0.7
2017-Mar-25 02:07N 35°55' E 014°45'2 0.8
2017-Mar-24 23:20N 35°55' E 014°48'0 0.0
2017-Mar-24 21:23N 35°55' E 014°48'1 0.7
2017-Mar-24 19:33N 35°54' E 014°46'1 0.7
2017-Mar-24 18:33N 35°54' E 014°45'0 0.0
2017-Mar-24 17:33N 35°54' E 014°45'0 0.0
2017-Mar-24 15:15N 35°54' E 014°45'0 0.0
2017-Mar-24 14:33N 35°54' E 014°45'0 0.0
2017-Mar-24 13:33N 35°54' E 014°45'0 0.0
2017-Mar-24 11:18N 35°54' E 014°45'0 0.0
2017-Mar-24 10:34N 35°54' E 014°45'2 1.8
2017-Mar-24 09:33N 35°53' E 014°44'0 0.1
2017-Mar-24 06:19N 35°53' E 014°45'0 0.0
2017-Mar-24 05:31N 35°53' E 014°45'0 0.0
2017-Mar-24 04:25N 35°53' E 014°45'0 0.0
2017-Mar-24 03:19N 35°53' E 014°45'0 0.2
2017-Mar-24 02:32N 35°53' E 014°45'6 5.8
2017-Mar-24 01:33N 35°49' E 014°39'4 0.1
2017-Mar-22 08:17N 35°49' E 014°34'2 3.0
2017-Mar-22 07:32N 35°50' E 014°36'0 0.0
2017-Mar-22 06:26N 35°50' E 014°36'0 0.0
2017-Mar-22 05:32N 35°50' E 014°36'0 0.0
2017-Mar-22 04:32N 35°50' E 014°36'0 0.0
2017-Mar-22 03:32N 35°50' E 014°36'0 0.0
2017-Mar-22 02:17N 35°50' E 014°36'0 0.0
2017-Mar-21 21:17N 35°50' E 014°36'0 0.0
2017-Mar-21 20:11N 35°50' E 014°36'0 0.0
2017-Mar-21 19:11N 35°50' E 014°36'1 0.1
2017-Mar-21 07:33N 35°50' E 014°37'8 6.8
2017-Mar-21 06:25N 35°53' E 014°45'0 0.0
2017-Mar-21 03:25N 35°53' E 014°45'0 0.0
2017-Mar-21 02:31N 35°53' E 014°45'0 0.0
2017-Mar-21 01:31N 35°53' E 014°45'0 0.0
2017-Mar-21 00:19N 35°53' E 014°45'0 0.0
2017-Mar-20 23:31N 35°53' E 014°45'0 0.0
2017-Mar-20 22:31N 35°53' E 014°45'1 1.4
2017-Mar-20 21:31N 35°53' E 014°44'1 1.0
2017-Mar-20 20:27N 35°52' E 014°45'0 0.0
2017-Mar-20 19:33N 35°52' E 014°45'0 0.0
2017-Mar-20 18:33N 35°52' E 014°45'0 0.0
2017-Mar-20 17:24N 35°52' E 014°45'0 0.0
2017-Mar-20 16:33N 35°52' E 014°45'0 0.0
2017-Mar-20 15:30N 35°52' E 014°45'0 0.1
2017-Mar-20 14:30N 35°52' E 014°45'1 1.1
2017-Mar-20 13:31N 35°53' E 014°45'0 0.0
2017-Mar-20 12:31N 35°53' E 014°45'0 0.0
2017-Mar-20 11:31N 35°53' E 014°45'0 0.2
2017-Mar-20 10:33N 35°53' E 014°45'2 2.2
2017-Mar-20 09:32N 35°53' E 014°48'0 0.0
2017-Mar-20 08:32N 35°53' E 014°48'0 0.0
2017-Mar-20 07:29N 35°53' E 014°48'0 0.0
2017-Mar-20 06:32N 35°53' E 014°48'0 0.0
2017-Mar-20 05:32N 35°53' E 014°48'0 0.0
2017-Mar-20 04:32N 35°53' E 014°48'5 4.9
2017-Mar-20 03:33N 35°50' E 014°43'6 6.1
2017-Mar-20 02:33N 35°49' E 014°36'0 0.3
2017-Mar-20 01:33N 35°49' E 014°35'0 0.0
2017-Mar-20 00:27N 35°49' E 014°35'0 0.0
2017-Mar-19 23:33N 35°49' E 014°35'0 0.0
2017-Mar-19 22:33N 35°49' E 014°35'0 0.0
2017-Mar-19 21:30N 35°49' E 014°35'0 0.0
2017-Mar-19 20:30N 35°49' E 014°35'2 0.1
2017-Mar-19 07:30N 35°49' E 014°33'1 0.1
2017-Mar-18 21:28N 35°49' E 014°32'3 0.2
2017-Mar-18 10:16N 35°50' E 014°35'0 0.0
2017-Mar-18 09:31N 35°50' E 014°35'0 0.0
2017-Mar-18 08:31N 35°50' E 014°35'0 0.0
2017-Mar-18 06:04N 35°50' E 014°35'0 0.0
2017-Mar-18 05:13N 35°50' E 014°35'0 0.0
2017-Mar-18 03:19N 35°50' E 014°35'3 3.5
2017-Mar-18 02:32N 35°52' E 014°36'4 0.3
2017-Mar-17 14:17N 35°54' E 014°31'1 1.9
2017-Mar-17 13:33N 35°54' E 014°33'2 1.5
2017-Mar-17 12:33N 35°53' E 014°35'4 0.7
2017-Mar-17 07:33N 35°49' E 014°35'1 0.2
2017-Mar-16 22:10N 35°49' E 014°34'  

Dump ship's entire track history